This is the latest recevied weather packets stored in our database for station/object SR2CPA-13. If no packets are shown the sender has not sent any weather packets the latest 10 day(s).
| Time | Temp. | Humidity | Pressure | Rain* | Wind** | Luminosity | Snow |
|---|---|---|---|---|---|---|---|
| 1777593949 | 3.89° C | 82% | 0 hPa | 0 mm | - | - | - |
| 1777593349 | 4.44° C | 79% | 0 hPa | 0 mm | - | - | - |
| 1777592749 | 5° C | 77% | 0 hPa | 0 mm | - | - | - |
| 1777592149 | 4.44° C | 75% | 0 hPa | 0 mm | - | - | - |
| 1777591529 | 5° C | 73% | 0 hPa | 0 mm | - | - | - |
| 1777590929 | 5.56° C | 71% | 0 hPa | 0 mm | - | - | - |
| 1777590329 | 5.56° C | 71% | 0 hPa | 0 mm | - | - | - |
| 1777589709 | 6.11° C | 67% | 0 hPa | 0 mm | - | - | - |
| 1777589109 | 6.11° C | 66% | 0 hPa | 0 mm | - | - | - |
| 1777588489 | 6.11° C | 65% | 0 hPa | 0 mm | - | - | - |
| 1777587888 | 6.67° C | 66% | 0 hPa | 0 mm | - | - | - |
| 1777587288 | 6.11° C | 67% | 0 hPa | 0 mm | - | - | - |
| 1777586668 | 5.56° C | 68% | 0 hPa | 0 mm | - | - | - |
| 1777586068 | 5.56° C | 69% | 0 hPa | 0 mm | - | - | - |
| 1777585448 | 6.67° C | 64% | 0 hPa | 0 mm | - | - | - |
| 1777584849 | 6.67° C | 63% | 0 hPa | 0 mm | - | - | - |
| 1777584248 | 6.67° C | 64% | 0 hPa | 0 mm | - | - | - |
| 1777583648 | 6.67° C | 64% | 0 hPa | 0 mm | - | - | - |
| 1777583048 | 6.67° C | 65% | 0 hPa | 0 mm | - | - | - |
| 1777582428 | 6.67° C | 64% | 0 hPa | 0 mm | - | - | - |
| 1777581808 | 6.67° C | 65% | 0 hPa | 0 mm | - | - | - |
| 1777581208 | 7.22° C | 64% | 0 hPa | 0 mm | - | - | - |
| 1777580588 | 7.78° C | 61% | 0 hPa | 0 mm | - | - | - |
| 1777579988 | 8.33° C | 58% | 0 hPa | 0 mm | - | - | - |
| 1777579368 | 8.89° C | 55% | 0 hPa | 0 mm | - | - | - |
* Rain latest hour (hover to see other rain measurements)
** Current wind speed in m/s (hover to see current wind gust speed)